sensor_id;sensor_type;location;lat;lon;timestamp;P1;durP1;ratioP1;P2;durP2;ratioP2
72761;SDS011;60886;55.034;73.150;2023-04-25T00:00:58;5.13;;;1.10;;
72761;SDS011;60886;55.034;73.150;2023-04-25T00:03:59;5.30;;;1.27;;
72761;SDS011;60886;55.034;73.150;2023-04-25T00:07:01;5.53;;;1.27;;
72761;SDS011;60886;55.034;73.150;2023-04-25T00:10:03;5.65;;;1.15;;
72761;SDS011;60886;55.034;73.150;2023-04-25T00:13:07;5.28;;;1.10;;
72761;SDS011;60886;55.034;73.150;2023-04-25T00:16:09;5.65;;;1.10;;
72761;SDS011;60886;55.034;73.150;2023-04-25T00:19:12;6.07;;;1.00;;
72761;SDS011;60886;55.034;73.150;2023-04-25T00:22:14;5.00;;;1.20;;
72761;SDS011;60886;55.034;73.150;2023-04-25T00:25:15;5.85;;;1.23;;
72761;SDS011;60886;55.034;73.150;2023-04-25T00:28:17;7.25;;;1.13;;
72761;SDS011;60886;55.034;73.150;2023-04-25T00:31:19;6.77;;;1.20;;
72761;SDS011;60886;55.034;73.150;2023-04-25T00:34:26;6.28;;;1.10;;
72761;SDS011;60886;55.034;73.150;2023-04-25T00:37:27;6.23;;;1.20;;
72761;SDS011;60886;55.034;73.150;2023-04-25T00:40:28;5.85;;;0.80;;
72761;SDS011;60886;55.034;73.150;2023-04-25T00:43:31;6.10;;;1.10;;
72761;SDS011;60886;55.034;73.150;2023-04-25T00:46:33;6.95;;;1.33;;
72761;SDS011;60886;55.034;73.150;2023-04-25T00:49:37;5.43;;;1.00;;
72761;SDS011;60886;55.034;73.150;2023-04-25T00:52:43;5.70;;;1.20;;
72761;SDS011;60886;55.034;73.150;2023-04-25T00:55:45;8.23;;;1.20;;
72761;SDS011;60886;55.034;73.150;2023-04-25T00:58:48;5.70;;;1.20;;
72761;SDS011;60886;55.034;73.150;2023-04-25T01:01:53;5.60;;;1.30;;
72761;SDS011;60886;55.034;73.150;2023-04-25T01:04:55;4.90;;;1.10;;
72761;SDS011;60886;55.034;73.150;2023-04-25T01:07:57;4.87;;;1.13;;
72761;SDS011;60886;55.034;73.150;2023-04-25T01:11:04;6.60;;;1.48;;
72761;SDS011;60886;55.034;73.150;2023-04-25T01:14:06;7.82;;;2.00;;
72761;SDS011;60886;55.034;73.150;2023-04-25T01:17:09;5.22;;;1.33;;
72761;SDS011;60886;55.034;73.150;2023-04-25T01:20:11;5.95;;;1.20;;
72761;SDS011;60886;55.034;73.150;2023-04-25T01:23:13;5.50;;;1.35;;
72761;SDS011;60886;55.034;73.150;2023-04-25T01:26:15;5.72;;;1.45;;
72761;SDS011;60886;55.034;73.150;2023-04-25T01:29:18;7.20;;;1.30;;
72761;SDS011;60886;55.034;73.150;2023-04-25T01:32:21;6.15;;;1.23;;
72761;SDS011;60886;55.034;73.150;2023-04-25T01:35:27;5.40;;;1.25;;
72761;SDS011;60886;55.034;73.150;2023-04-25T01:38:28;5.83;;;1.30;;
72761;SDS011;60886;55.034;73.150;2023-04-25T01:41:31;10.85;;;2.60;;
72761;SDS011;60886;55.034;73.150;2023-04-25T01:44:33;9.53;;;2.80;;
72761;SDS011;60886;55.034;73.150;2023-04-25T01:47:39;7.72;;;2.10;;
72761;SDS011;60886;55.034;73.150;2023-04-25T01:50:50;8.77;;;1.70;;
72761;SDS011;60886;55.034;73.150;2023-04-25T01:53:52;8.50;;;1.40;;
72761;SDS011;60886;55.034;73.150;2023-04-25T01:57:04;8.07;;;1.63;;
72761;SDS011;60886;55.034;73.150;2023-04-25T02:00:09;10.38;;;1.63;;
72761;SDS011;60886;55.034;73.150;2023-04-25T02:03:14;7.70;;;1.57;;
72761;SDS011;60886;55.034;73.150;2023-04-25T02:06:16;7.93;;;1.55;;
72761;SDS011;60886;55.034;73.150;2023-04-25T02:09:20;5.72;;;1.38;;
72761;SDS011;60886;55.034;73.150;2023-04-25T02:12:27;7.70;;;1.63;;
72761;SDS011;60886;55.034;73.150;2023-04-25T02:15:32;8.68;;;1.70;;
72761;SDS011;60886;55.034;73.150;2023-04-25T02:19:04;5.77;;;1.20;;
72761;SDS011;60886;55.034;73.150;2023-04-25T02:22:06;8.18;;;1.60;;
72761;SDS011;60886;55.034;73.150;2023-04-25T02:25:08;7.18;;;1.50;;
72761;SDS011;60886;55.034;73.150;2023-04-25T02:28:10;6.70;;;1.50;;
72761;SDS011;60886;55.034;73.150;2023-04-25T02:31:12;9.02;;;1.70;;
72761;SDS011;60886;55.034;73.150;2023-04-25T02:34:19;7.07;;;1.60;;
72761;SDS011;60886;55.034;73.150;2023-04-25T02:37:21;8.27;;;1.60;;
72761;SDS011;60886;55.034;73.150;2023-04-25T02:40:27;8.30;;;1.70;;
72761;SDS011;60886;55.034;73.150;2023-04-25T02:43:30;9.23;;;1.50;;
72761;SDS011;60886;55.034;73.150;2023-04-25T02:46:32;6.97;;;1.70;;
72761;SDS011;60886;55.034;73.150;2023-04-25T02:49:34;6.00;;;1.67;;
72761;SDS011;60886;55.034;73.150;2023-04-25T02:52:36;8.32;;;1.80;;
72761;SDS011;60886;55.034;73.150;2023-04-25T02:55:45;6.57;;;1.65;;
72761;SDS011;60886;55.034;73.150;2023-04-25T02:58:47;4.70;;;1.20;;
72761;SDS011;60886;55.034;73.150;2023-04-25T03:01:49;8.03;;;1.46;;
72761;SDS011;60886;55.034;73.150;2023-04-25T03:04:53;6.18;;;1.50;;
72761;SDS011;60886;55.034;73.150;2023-04-25T03:07:54;5.80;;;1.30;;
72761;SDS011;60886;55.034;73.150;2023-04-25T03:11:01;6.28;;;1.40;;
72761;SDS011;60886;55.034;73.150;2023-04-25T03:14:02;5.73;;;1.50;;
72761;SDS011;60886;55.034;73.150;2023-04-25T03:17:15;6.55;;;1.60;;
72761;SDS011;60886;55.034;73.150;2023-04-25T03:20:23;6.15;;;1.55;;
72761;SDS011;60886;55.034;73.150;2023-04-25T03:23:29;5.50;;;1.50;;
72761;SDS011;60886;55.034;73.150;2023-04-25T03:26:35;7.90;;;1.75;;
72761;SDS011;60886;55.034;73.150;2023-04-25T03:29:37;5.93;;;1.50;;
72761;SDS011;60886;55.034;73.150;2023-04-25T03:32:39;6.15;;;1.50;;
72761;SDS011;60886;55.034;73.150;2023-04-25T03:35:51;5.68;;;1.50;;
72761;SDS011;60886;55.034;73.150;2023-04-25T03:39:04;5.87;;;1.33;;
72761;SDS011;60886;55.034;73.150;2023-04-25T03:42:07;7.07;;;1.23;;
72761;SDS011;60886;55.034;73.150;2023-04-25T03:45:08;5.63;;;1.20;;
72761;SDS011;60886;55.034;73.150;2023-04-25T03:48:11;5.95;;;1.35;;
72761;SDS011;60886;55.034;73.150;2023-04-25T03:51:12;5.75;;;1.33;;
72761;SDS011;60886;55.034;73.150;2023-04-25T03:54:17;6.00;;;1.47;;
72761;SDS011;60886;55.034;73.150;2023-04-25T03:57:32;6.87;;;1.63;;
72761;SDS011;60886;55.034;73.150;2023-04-25T04:00:33;7.53;;;1.63;;
72761;SDS011;60886;55.034;73.150;2023-04-25T04:03:46;7.77;;;1.43;;
72761;SDS011;60886;55.034;73.150;2023-04-25T04:06:48;5.64;;;1.40;;
72761;SDS011;60886;55.034;73.150;2023-04-25T04:09:58;7.40;;;1.73;;
72761;SDS011;60886;55.034;73.150;2023-04-25T04:13:06;10.33;;;1.60;;
72761;SDS011;60886;55.034;73.150;2023-04-25T04:16:07;6.33;;;1.50;;
72761;SDS011;60886;55.034;73.150;2023-04-25T04:19:14;5.80;;;1.50;;
72761;SDS011;60886;55.034;73.150;2023-04-25T04:22:21;5.80;;;1.23;;
72761;SDS011;60886;55.034;73.150;2023-04-25T04:25:25;5.90;;;1.42;;
72761;SDS011;60886;55.034;73.150;2023-04-25T04:28:57;5.93;;;1.40;;
72761;SDS011;60886;55.034;73.150;2023-04-25T04:32:30;6.17;;;1.40;;
72761;SDS011;60886;55.034;73.150;2023-04-25T04:35:39;5.00;;;1.40;;
72761;SDS011;60886;55.034;73.150;2023-04-25T04:38:41;11.53;;;1.70;;
72761;SDS011;60886;55.034;73.150;2023-04-25T04:42:01;7.07;;;1.50;;
72761;SDS011;60886;55.034;73.150;2023-04-25T04:45:26;5.72;;;1.30;;
72761;SDS011;60886;55.034;73.150;2023-04-25T04:49:10;6.95;;;1.55;;
72761;SDS011;60886;55.034;73.150;2023-04-25T04:52:31;5.10;;;1.23;;
72761;SDS011;60886;55.034;73.150;2023-04-25T04:56:03;6.13;;;1.52;;
72761;SDS011;60886;55.034;73.150;2023-04-25T04:59:24;5.73;;;1.40;;
72761;SDS011;60886;55.034;73.150;2023-04-25T05:02:51;4.82;;;1.20;;
72761;SDS011;60886;55.034;73.150;2023-04-25T05:06:15;5.47;;;1.33;;
72761;SDS011;60886;55.034;73.150;2023-04-25T05:09:46;6.90;;;1.67;;
72761;SDS011;60886;55.034;73.150;2023-04-25T05:13:12;7.73;;;1.40;;
72761;SDS011;60886;55.034;73.150;2023-04-25T05:16:46;6.67;;;1.46;;
72761;SDS011;60886;55.034;73.150;2023-04-25T05:20:30;5.97;;;1.30;;
72761;SDS011;60886;55.034;73.150;2023-04-25T05:23:37;8.55;;;1.48;;
72761;SDS011;60886;55.034;73.150;2023-04-25T05:27:08;6.80;;;1.30;;
72761;SDS011;60886;55.034;73.150;2023-04-25T05:30:39;4.07;;;1.20;;
72761;SDS011;60886;55.034;73.150;2023-04-25T05:34:09;6.22;;;1.40;;
72761;SDS011;60886;55.034;73.150;2023-04-25T05:37:18;6.90;;;1.40;;
72761;SDS011;60886;55.034;73.150;2023-04-25T05:40:28;6.53;;;1.48;;
72761;SDS011;60886;55.034;73.150;2023-04-25T05:44:01;4.90;;;1.37;;
72761;SDS011;60886;55.034;73.150;2023-04-25T05:47:15;5.20;;;1.35;;
72761;SDS011;60886;55.034;73.150;2023-04-25T05:50:38;7.47;;;1.40;;
72761;SDS011;60886;55.034;73.150;2023-04-25T05:54:14;8.60;;;1.80;;
72761;SDS011;60886;55.034;73.150;2023-04-25T05:57:22;6.13;;;1.63;;
72761;SDS011;60886;55.034;73.150;2023-04-25T06:00:34;6.82;;;1.55;;
72761;SDS011;60886;55.034;73.150;2023-04-25T06:03:36;7.47;;;1.50;;
72761;SDS011;60886;55.034;73.150;2023-04-25T06:06:46;6.87;;;1.92;;
72761;SDS011;60886;55.034;73.150;2023-04-25T06:09:47;6.55;;;1.60;;
72761;SDS011;60886;55.034;73.150;2023-04-25T06:12:49;7.53;;;1.58;;
72761;SDS011;60886;55.034;73.150;2023-04-25T06:15:53;7.65;;;1.40;;
72761;SDS011;60886;55.034;73.150;2023-04-25T06:18:54;5.60;;;1.50;;
72761;SDS011;60886;55.034;73.150;2023-04-25T06:21:56;9.80;;;1.40;;
72761;SDS011;60886;55.034;73.150;2023-04-25T06:24:57;6.00;;;1.38;;
72761;SDS011;60886;55.034;73.150;2023-04-25T06:28:05;7.40;;;1.60;;
72761;SDS011;60886;55.034;73.150;2023-04-25T06:31:07;6.78;;;1.73;;
72761;SDS011;60886;55.034;73.150;2023-04-25T06:34:08;7.18;;;1.70;;
72761;SDS011;60886;55.034;73.150;2023-04-25T06:37:13;8.13;;;1.60;;
72761;SDS011;60886;55.034;73.150;2023-04-25T06:40:15;14.70;;;2.17;;
72761;SDS011;60886;55.034;73.150;2023-04-25T06:43:18;7.10;;;1.63;;
72761;SDS011;60886;55.034;73.150;2023-04-25T06:46:46;8.43;;;1.73;;
72761;SDS011;60886;55.034;73.150;2023-04-25T06:49:48;10.45;;;1.95;;
72761;SDS011;60886;55.034;73.150;2023-04-25T06:52:50;7.90;;;1.50;;
72761;SDS011;60886;55.034;73.150;2023-04-25T06:55:59;5.82;;;1.33;;
72761;SDS011;60886;55.034;73.150;2023-04-25T06:59:08;5.87;;;1.40;;
72761;SDS011;60886;55.034;73.150;2023-04-25T07:02:12;7.97;;;1.65;;
72761;SDS011;60886;55.034;73.150;2023-04-25T07:05:14;5.82;;;1.60;;
72761;SDS011;60886;55.034;73.150;2023-04-25T07:08:20;6.18;;;1.52;;
72761;SDS011;60886;55.034;73.150;2023-04-25T07:11:22;5.97;;;1.50;;
72761;SDS011;60886;55.034;73.150;2023-04-25T07:14:29;5.80;;;1.38;;
72761;SDS011;60886;55.034;73.150;2023-04-25T07:17:31;5.65;;;1.60;;
72761;SDS011;60886;55.034;73.150;2023-04-25T07:20:38;8.07;;;1.58;;
72761;SDS011;60886;55.034;73.150;2023-04-25T07:23:41;8.53;;;1.70;;
72761;SDS011;60886;55.034;73.150;2023-04-25T07:26:48;4.50;;;1.28;;
72761;SDS011;60886;55.034;73.150;2023-04-25T07:29:57;4.82;;;1.50;;
72761;SDS011;60886;55.034;73.150;2023-04-25T07:32:58;5.60;;;1.35;;
72761;SDS011;60886;55.034;73.150;2023-04-25T07:36:00;5.87;;;1.37;;
72761;SDS011;60886;55.034;73.150;2023-04-25T07:39:02;8.73;;;1.50;;
72761;SDS011;60886;55.034;73.150;2023-04-25T07:42:15;6.70;;;1.30;;
72761;SDS011;60886;55.034;73.150;2023-04-25T07:45:18;6.10;;;1.40;;
72761;SDS011;60886;55.034;73.150;2023-04-25T07:48:21;5.53;;;1.50;;
72761;SDS011;60886;55.034;73.150;2023-04-25T07:51:34;7.72;;;1.50;;
72761;SDS011;60886;55.034;73.150;2023-04-25T07:54:40;5.43;;;1.48;;
72761;SDS011;60886;55.034;73.150;2023-04-25T07:57:49;6.53;;;1.50;;
72761;SDS011;60886;55.034;73.150;2023-04-25T08:00:57;6.33;;;1.50;;
72761;SDS011;60886;55.034;73.150;2023-04-25T08:04:17;10.30;;;1.60;;
72761;SDS011;60886;55.034;73.150;2023-04-25T08:07:27;7.15;;;1.45;;
72761;SDS011;60886;55.034;73.150;2023-04-25T08:10:39;6.13;;;1.53;;
72761;SDS011;60886;55.034;73.150;2023-04-25T08:13:47;6.10;;;1.57;;
72761;SDS011;60886;55.034;73.150;2023-04-25T08:16:49;6.98;;;1.57;;
72761;SDS011;60886;55.034;73.150;2023-04-25T08:19:51;5.45;;;1.55;;
72761;SDS011;60886;55.034;73.150;2023-04-25T08:23:02;5.30;;;1.55;;
72761;SDS011;60886;55.034;73.150;2023-04-25T08:26:18;7.90;;;2.17;;
72761;SDS011;60886;55.034;73.150;2023-04-25T08:29:21;11.00;;;2.17;;
72761;SDS011;60886;55.034;73.150;2023-04-25T08:32:25;8.13;;;1.67;;
72761;SDS011;60886;55.034;73.150;2023-04-25T08:35:56;6.22;;;1.70;;
72761;SDS011;60886;55.034;73.150;2023-04-25T08:38:59;5.63;;;1.50;;
72761;SDS011;60886;55.034;73.150;2023-04-25T08:42:02;5.38;;;1.40;;
72761;SDS011;60886;55.034;73.150;2023-04-25T08:45:11;8.50;;;1.80;;
72761;SDS011;60886;55.034;73.150;2023-04-25T08:48:28;5.30;;;1.40;;
72761;SDS011;60886;55.034;73.150;2023-04-25T08:51:33;7.80;;;1.50;;
72761;SDS011;60886;55.034;73.150;2023-04-25T08:54:43;7.68;;;1.40;;
72761;SDS011;60886;55.034;73.150;2023-04-25T08:57:51;6.00;;;1.20;;
72761;SDS011;60886;55.034;73.150;2023-04-25T09:00:54;7.03;;;1.60;;
72761;SDS011;60886;55.034;73.150;2023-04-25T09:04:12;5.07;;;1.57;;
72761;SDS011;60886;55.034;73.150;2023-04-25T09:07:15;11.32;;;4.30;;
72761;SDS011;60886;55.034;73.150;2023-04-25T09:10:27;6.82;;;2.72;;
72761;SDS011;60886;55.034;73.150;2023-04-25T09:13:30;7.13;;;2.50;;
72761;SDS011;60886;55.034;73.150;2023-04-25T09:16:59;8.33;;;2.60;;
72761;SDS011;60886;55.034;73.150;2023-04-25T09:20:16;6.97;;;1.65;;
72761;SDS011;60886;55.034;73.150;2023-04-25T09:23:18;5.50;;;1.80;;
72761;SDS011;60886;55.034;73.150;2023-04-25T09:26:24;6.97;;;2.30;;
72761;SDS011;60886;55.034;73.150;2023-04-25T09:29:30;8.25;;;3.78;;
72761;SDS011;60886;55.034;73.150;2023-04-25T09:32:33;7.65;;;1.90;;
72761;SDS011;60886;55.034;73.150;2023-04-25T09:35:42;6.53;;;1.50;;
72761;SDS011;60886;55.034;73.150;2023-04-25T09:38:52;7.38;;;2.40;;
72761;SDS011;60886;55.034;73.150;2023-04-25T09:42:12;6.63;;;2.17;;
72761;SDS011;60886;55.034;73.150;2023-04-25T09:45:19;7.87;;;2.00;;
72761;SDS011;60886;55.034;73.150;2023-04-25T09:48:27;6.88;;;2.40;;
72761;SDS011;60886;55.034;73.150;2023-04-25T09:51:32;7.80;;;2.15;;
72761;SDS011;60886;55.034;73.150;2023-04-25T09:54:35;6.00;;;2.00;;
72761;SDS011;60886;55.034;73.150;2023-04-25T09:57:52;5.90;;;1.83;;
72761;SDS011;60886;55.034;73.150;2023-04-25T10:00:59;8.63;;;1.63;;
72761;SDS011;60886;55.034;73.150;2023-04-25T10:04:23;7.40;;;2.45;;
72761;SDS011;60886;55.034;73.150;2023-04-25T10:07:50;5.67;;;1.67;;
72761;SDS011;60886;55.034;73.150;2023-04-25T10:10:52;5.57;;;1.55;;
72761;SDS011;60886;55.034;73.150;2023-04-25T10:13:54;4.87;;;1.60;;
72761;SDS011;60886;55.034;73.150;2023-04-25T10:16:57;5.80;;;1.55;;
72761;SDS011;60886;55.034;73.150;2023-04-25T10:20:09;6.15;;;1.40;;
72761;SDS011;60886;55.034;73.150;2023-04-25T10:23:13;7.50;;;1.70;;
72761;SDS011;60886;55.034;73.150;2023-04-25T10:26:16;6.85;;;1.42;;
72761;SDS011;60886;55.034;73.150;2023-04-25T10:29:25;5.93;;;1.60;;
72761;SDS011;60886;55.034;73.150;2023-04-25T10:32:27;6.93;;;1.70;;
72761;SDS011;60886;55.034;73.150;2023-04-25T10:35:30;6.15;;;1.77;;
72761;SDS011;60886;55.034;73.150;2023-04-25T10:38:32;5.67;;;1.40;;
72761;SDS011;60886;55.034;73.150;2023-04-25T10:41:46;6.15;;;1.60;;
72761;SDS011;60886;55.034;73.150;2023-04-25T10:45:04;5.90;;;1.50;;
72761;SDS011;60886;55.034;73.150;2023-04-25T10:48:29;7.20;;;1.60;;
72761;SDS011;60886;55.034;73.150;2023-04-25T10:51:31;5.63;;;1.37;;
72761;SDS011;60886;55.034;73.150;2023-04-25T10:54:33;5.60;;;1.40;;
72761;SDS011;60886;55.034;73.150;2023-04-25T10:57:41;5.55;;;1.58;;
72761;SDS011;60886;55.034;73.150;2023-04-25T11:00:44;4.67;;;1.40;;
72761;SDS011;60886;55.034;73.150;2023-04-25T11:03:46;4.90;;;1.20;;
72761;SDS011;60886;55.034;73.150;2023-04-25T11:06:55;5.27;;;1.40;;
72761;SDS011;60886;55.034;73.150;2023-04-25T11:10:17;11.93;;;2.70;;
72761;SDS011;60886;55.034;73.150;2023-04-25T11:13:20;4.72;;;1.42;;
72761;SDS011;60886;55.034;73.150;2023-04-25T11:16:23;8.60;;;1.48;;
72761;SDS011;60886;55.034;73.150;2023-04-25T11:19:26;6.78;;;1.70;;
72761;SDS011;60886;55.034;73.150;2023-04-25T11:22:28;6.47;;;1.65;;
72761;SDS011;60886;55.034;73.150;2023-04-25T11:25:30;5.72;;;1.50;;
72761;SDS011;60886;55.034;73.150;2023-04-25T11:28:32;5.83;;;1.50;;
72761;SDS011;60886;55.034;73.150;2023-04-25T11:31:33;6.00;;;1.40;;
72761;SDS011;60886;55.034;73.150;2023-04-25T11:34:46;9.60;;;1.90;;
72761;SDS011;60886;55.034;73.150;2023-04-25T11:37:47;4.53;;;1.23;;
72761;SDS011;60886;55.034;73.150;2023-04-25T11:40:53;9.35;;;2.20;;
72761;SDS011;60886;55.034;73.150;2023-04-25T11:43:54;5.43;;;1.50;;
72761;SDS011;60886;55.034;73.150;2023-04-25T11:46:56;7.10;;;1.50;;
72761;SDS011;60886;55.034;73.150;2023-04-25T11:50:06;5.43;;;1.55;;
72761;SDS011;60886;55.034;73.150;2023-04-25T11:53:19;4.73;;;1.20;;
72761;SDS011;60886;55.034;73.150;2023-04-25T11:56:21;5.70;;;1.45;;
72761;SDS011;60886;55.034;73.150;2023-04-25T11:59:23;6.70;;;1.70;;
72761;SDS011;60886;55.034;73.150;2023-04-25T12:02:26;7.10;;;2.55;;
72761;SDS011;60886;55.034;73.150;2023-04-25T12:05:29;7.90;;;2.50;;
72761;SDS011;60886;55.034;73.150;2023-04-25T12:08:34;6.43;;;1.58;;
72761;SDS011;60886;55.034;73.150;2023-04-25T12:14:45;5.20;;;1.30;;
72761;SDS011;60886;55.034;73.150;2023-04-25T12:17:49;6.93;;;1.63;;
72761;SDS011;60886;55.034;73.150;2023-04-25T12:20:58;6.68;;;1.70;;
72761;SDS011;60886;55.034;73.150;2023-04-25T12:27:26;4.87;;;1.40;;
72761;SDS011;60886;55.034;73.150;2023-04-25T12:30:28;5.10;;;1.40;;
72761;SDS011;60886;55.034;73.150;2023-04-25T12:33:35;4.90;;;1.15;;
72761;SDS011;60886;55.034;73.150;2023-04-25T12:36:45;5.79;;;1.30;;
72761;SDS011;60886;55.034;73.150;2023-04-25T12:39:57;4.53;;;1.30;;
72761;SDS011;60886;55.034;73.150;2023-04-25T12:42:59;6.00;;;1.30;;
72761;SDS011;60886;55.034;73.150;2023-04-25T12:46:00;6.03;;;1.30;;
72761;SDS011;60886;55.034;73.150;2023-04-25T12:49:03;6.53;;;1.30;;
72761;SDS011;60886;55.034;73.150;2023-04-25T12:52:05;5.90;;;1.40;;
72761;SDS011;60886;55.034;73.150;2023-04-25T12:55:07;6.63;;;1.35;;
72761;SDS011;60886;55.034;73.150;2023-04-25T12:58:08;6.25;;;1.27;;
72761;SDS011;60886;55.034;73.150;2023-04-25T13:01:10;5.10;;;1.50;;
72761;SDS011;60886;55.034;73.150;2023-04-25T13:04:23;5.23;;;1.30;;
72761;SDS011;60886;55.034;73.150;2023-04-25T13:07:24;5.70;;;1.40;;
72761;SDS011;60886;55.034;73.150;2023-04-25T13:10:26;5.05;;;1.23;;
72761;SDS011;60886;55.034;73.150;2023-04-25T13:13:27;4.80;;;1.30;;
72761;SDS011;60886;55.034;73.150;2023-04-25T13:16:29;5.07;;;1.10;;
72761;SDS011;60886;55.034;73.150;2023-04-25T13:19:30;6.25;;;1.30;;
72761;SDS011;60886;55.034;73.150;2023-04-25T13:22:32;4.50;;;1.10;;
72761;SDS011;60886;55.034;73.150;2023-04-25T13:25:33;7.43;;;1.23;;
72761;SDS011;60886;55.034;73.150;2023-04-25T13:28:35;7.47;;;1.57;;
72761;SDS011;60886;55.034;73.150;2023-04-25T13:31:45;9.60;;;1.58;;
72761;SDS011;60886;55.034;73.150;2023-04-25T13:34:47;7.28;;;1.27;;
72761;SDS011;60886;55.034;73.150;2023-04-25T13:37:52;5.40;;;1.30;;
72761;SDS011;60886;55.034;73.150;2023-04-25T13:40:54;5.20;;;1.27;;
72761;SDS011;60886;55.034;73.150;2023-04-25T13:43:56;7.10;;;1.50;;
72761;SDS011;60886;55.034;73.150;2023-04-25T13:46:57;7.70;;;1.80;;
72761;SDS011;60886;55.034;73.150;2023-04-25T13:50:01;7.50;;;1.98;;
72761;SDS011;60886;55.034;73.150;2023-04-25T13:53:07;6.53;;;1.80;;
72761;SDS011;60886;55.034;73.150;2023-04-25T13:56:09;7.70;;;1.63;;
72761;SDS011;60886;55.034;73.150;2023-04-25T13:59:22;8.10;;;2.50;;
72761;SDS011;60886;55.034;73.150;2023-04-25T14:02:24;7.47;;;2.60;;
72761;SDS011;60886;55.034;73.150;2023-04-25T14:05:26;12.30;;;3.07;;
72761;SDS011;60886;55.034;73.150;2023-04-25T14:08:28;14.48;;;3.92;;
72761;SDS011;60886;55.034;73.150;2023-04-25T14:11:29;13.98;;;4.25;;
72761;SDS011;60886;55.034;73.150;2023-04-25T14:14:31;14.93;;;4.00;;
72761;SDS011;60886;55.034;73.150;2023-04-25T14:17:32;11.25;;;3.95;;
72761;SDS011;60886;55.034;73.150;2023-04-25T14:20:34;12.02;;;4.20;;
72761;SDS011;60886;55.034;73.150;2023-04-25T14:23:35;12.23;;;4.05;;
72761;SDS011;60886;55.034;73.150;2023-04-25T14:26:45;14.04;;;5.54;;
72761;SDS011;60886;55.034;73.150;2023-04-25T14:29:47;72.30;;;30.60;;
72761;SDS011;60886;55.034;73.150;2023-04-25T14:32:49;38.92;;;16.92;;
72761;SDS011;60886;55.034;73.150;2023-04-25T14:35:51;22.80;;;8.40;;
72761;SDS011;60886;55.034;73.150;2023-04-25T14:38:53;13.32;;;4.40;;
72761;SDS011;60886;55.034;73.150;2023-04-25T14:41:55;12.13;;;3.70;;
72761;SDS011;60886;55.034;73.150;2023-04-25T14:44:57;13.02;;;2.80;;
72761;SDS011;60886;55.034;73.150;2023-04-25T14:47:59;12.87;;;4.20;;
72761;SDS011;60886;55.034;73.150;2023-04-25T14:51:10;13.70;;;5.30;;
72761;SDS011;60886;55.034;73.150;2023-04-25T14:54:12;20.30;;;7.40;;
72761;SDS011;60886;55.034;73.150;2023-04-25T14:57:14;27.80;;;10.07;;
72761;SDS011;60886;55.034;73.150;2023-04-25T15:00:16;30.67;;;13.15;;
72761;SDS011;60886;55.034;73.150;2023-04-25T15:03:20;31.85;;;12.90;;
72761;SDS011;60886;55.034;73.150;2023-04-25T15:06:22;29.60;;;12.05;;
72761;SDS011;60886;55.034;73.150;2023-04-25T15:09:31;35.13;;;14.60;;
72761;SDS011;60886;55.034;73.150;2023-04-25T15:12:33;35.80;;;15.33;;
72761;SDS011;60886;55.034;73.150;2023-04-25T15:15:34;37.53;;;15.02;;
72761;SDS011;60886;55.034;73.150;2023-04-25T15:18:36;32.80;;;13.30;;
72761;SDS011;60886;55.034;73.150;2023-04-25T15:21:46;32.45;;;12.25;;
72761;SDS011;60886;55.034;73.150;2023-04-25T15:24:48;26.67;;;9.70;;
72761;SDS011;60886;55.034;73.150;2023-04-25T15:27:59;22.02;;;8.40;;
72761;SDS011;60886;55.034;73.150;2023-04-25T15:31:01;20.23;;;6.95;;
72761;SDS011;60886;55.034;73.150;2023-04-25T15:34:07;20.70;;;6.13;;
72761;SDS011;60886;55.034;73.150;2023-04-25T15:37:09;16.17;;;5.33;;
72761;SDS011;60886;55.034;73.150;2023-04-25T15:40:11;16.15;;;4.70;;
72761;SDS011;60886;55.034;73.150;2023-04-25T15:43:20;13.70;;;4.17;;
72761;SDS011;60886;55.034;73.150;2023-04-25T15:50:11;13.75;;;4.05;;
72761;SDS011;60886;55.034;73.150;2023-04-25T15:53:24;13.10;;;3.88;;
72761;SDS011;60886;55.034;73.150;2023-04-25T15:56:26;13.38;;;3.92;;
72761;SDS011;60886;55.034;73.150;2023-04-25T15:59:28;11.87;;;3.23;;
72761;SDS011;60886;55.034;73.150;2023-04-25T16:02:29;12.32;;;3.60;;
72761;SDS011;60886;55.034;73.150;2023-04-25T16:05:31;12.07;;;3.33;;
72761;SDS011;60886;55.034;73.150;2023-04-25T16:08:32;9.60;;;3.40;;
72761;SDS011;60886;55.034;73.150;2023-04-25T16:11:35;10.85;;;3.70;;
72761;SDS011;60886;55.034;73.150;2023-04-25T16:14:37;9.75;;;3.70;;
72761;SDS011;60886;55.034;73.150;2023-04-25T16:17:43;9.70;;;3.47;;
72761;SDS011;60886;55.034;73.150;2023-04-25T16:20:55;11.82;;;3.15;;
72761;SDS011;60886;55.034;73.150;2023-04-25T16:23:57;11.77;;;3.05;;
72761;SDS011;60886;55.034;73.150;2023-04-25T16:27:08;9.70;;;3.10;;
72761;SDS011;60886;55.034;73.150;2023-04-25T16:30:10;9.63;;;2.83;;
72761;SDS011;60886;55.034;73.150;2023-04-25T16:33:12;11.63;;;3.25;;
72761;SDS011;60886;55.034;73.150;2023-04-25T16:36:13;7.75;;;2.88;;
72761;SDS011;60886;55.034;73.150;2023-04-25T16:39:15;11.33;;;2.97;;
72761;SDS011;60886;55.034;73.150;2023-04-25T16:42:17;9.52;;;3.10;;
72761;SDS011;60886;55.034;73.150;2023-04-25T16:45:20;9.67;;;3.20;;
72761;SDS011;60886;55.034;73.150;2023-04-25T16:48:21;12.23;;;3.17;;
72761;SDS011;60886;55.034;73.150;2023-04-25T16:51:26;11.35;;;2.92;;
72761;SDS011;60886;55.034;73.150;2023-04-25T16:54:28;10.47;;;2.70;;
72761;SDS011;60886;55.034;73.150;2023-04-25T16:57:33;7.57;;;2.72;;
72761;SDS011;60886;55.034;73.150;2023-04-25T17:00:37;9.50;;;2.53;;
72761;SDS011;60886;55.034;73.150;2023-04-25T17:03:52;6.78;;;2.08;;
72761;SDS011;60886;55.034;73.150;2023-04-25T17:07:03;6.67;;;2.00;;
72761;SDS011;60886;55.034;73.150;2023-04-25T17:10:05;9.30;;;2.28;;
72761;SDS011;60886;55.034;73.150;2023-04-25T17:13:09;7.60;;;2.40;;
72761;SDS011;60886;55.034;73.150;2023-04-25T17:16:13;8.55;;;2.20;;
72761;SDS011;60886;55.034;73.150;2023-04-25T17:19:21;10.02;;;2.35;;
72761;SDS011;60886;55.034;73.150;2023-04-25T17:22:24;7.37;;;2.10;;
72761;SDS011;60886;55.034;73.150;2023-04-25T17:25:30;6.20;;;1.70;;
72761;SDS011;60886;55.034;73.150;2023-04-25T17:28:32;6.97;;;1.92;;
72761;SDS011;60886;55.034;73.150;2023-04-25T17:31:34;6.20;;;1.58;;
72761;SDS011;60886;55.034;73.150;2023-04-25T17:34:36;6.95;;;1.70;;
72761;SDS011;60886;55.034;73.150;2023-04-25T17:37:39;5.87;;;1.63;;
72761;SDS011;60886;55.034;73.150;2023-04-25T17:40:46;5.60;;;1.50;;
72761;SDS011;60886;55.034;73.150;2023-04-25T17:43:48;6.97;;;1.90;;
72761;SDS011;60886;55.034;73.150;2023-04-25T17:46:52;4.90;;;1.71;;
72761;SDS011;60886;55.034;73.150;2023-04-25T17:50:06;5.72;;;1.70;;
72761;SDS011;60886;55.034;73.150;2023-04-25T17:53:08;7.43;;;1.70;;
72761;SDS011;60886;55.034;73.150;2023-04-25T17:56:10;6.10;;;1.60;;
72761;SDS011;60886;55.034;73.150;2023-04-25T17:59:16;5.50;;;1.63;;
72761;SDS011;60886;55.034;73.150;2023-04-25T18:02:18;7.18;;;1.80;;
72761;SDS011;60886;55.034;73.150;2023-04-25T18:05:19;6.87;;;1.60;;
72761;SDS011;60886;55.034;73.150;2023-04-25T18:08:34;5.70;;;1.70;;
72761;SDS011;60886;55.034;73.150;2023-04-25T18:11:46;7.80;;;1.50;;
72761;SDS011;60886;55.034;73.150;2023-04-25T18:14:48;8.13;;;1.77;;
72761;SDS011;60886;55.034;73.150;2023-04-25T18:17:55;6.30;;;1.70;;
72761;SDS011;60886;55.034;73.150;2023-04-25T18:20:58;6.25;;;1.70;;
72761;SDS011;60886;55.034;73.150;2023-04-25T18:24:01;6.32;;;1.70;;
72761;SDS011;60886;55.034;73.150;2023-04-25T18:27:02;5.10;;;1.50;;
72761;SDS011;60886;55.034;73.150;2023-04-25T18:30:06;4.75;;;1.35;;
72761;SDS011;60886;55.034;73.150;2023-04-25T18:33:14;7.53;;;1.90;;